sensor_id;sensor_type;location;lat;lon;timestamp;pressure;altitude;pressure_sealevel;temperature;humidity
25638;BME280;13496;51.040;13.680;2024-02-04T00:02:59;100099.84;;;17.84;54.91
25638;BME280;13496;51.040;13.680;2024-02-04T00:08:01;100101.47;;;17.85;54.52
25638;BME280;13496;51.040;13.680;2024-02-04T00:13:03;100098.03;;;17.85;54.93
25638;BME280;13496;51.040;13.680;2024-02-04T00:18:05;100091.16;;;17.84;55.08
25638;BME280;13496;51.040;13.680;2024-02-04T00:23:08;100087.06;;;17.81;55.22
25638;BME280;13496;51.040;13.680;2024-02-04T00:28:09;100089.50;;;17.83;55.26
25638;BME280;13496;51.040;13.680;2024-02-04T00:33:14;100083.28;;;17.84;54.85
25638;BME280;13496;51.040;13.680;2024-02-04T00:38:16;100101.81;;;17.82;55.12
25638;BME280;13496;51.040;13.680;2024-02-04T00:43:18;100107.72;;;17.84;55.11
25638;BME280;13496;51.040;13.680;2024-02-04T00:48:20;100113.31;;;17.81;54.73
25638;BME280;13496;51.040;13.680;2024-02-04T00:53:22;100123.81;;;17.81;54.94
25638;BME280;13496;51.040;13.680;2024-02-04T00:58:23;100122.19;;;17.80;54.91
25638;BME280;13496;51.040;13.680;2024-02-04T01:03:25;100090.69;;;17.80;54.91
25638;BME280;13496;51.040;13.680;2024-02-04T01:08:27;100086.25;;;17.81;54.72
25638;BME280;13496;51.040;13.680;2024-02-04T01:13:29;100092.66;;;17.78;54.90
25638;BME280;13496;51.040;13.680;2024-02-04T01:18:31;100086.41;;;17.79;54.56
25638;BME280;13496;51.040;13.680;2024-02-04T01:23:33;100093.66;;;17.77;54.87
25638;BME280;13496;51.040;13.680;2024-02-04T01:28:35;100102.53;;;17.76;54.75
25638;BME280;13496;51.040;13.680;2024-02-04T01:33:37;100089.88;;;17.80;54.73
25638;BME280;13496;51.040;13.680;2024-02-04T01:38:39;100091.84;;;17.78;54.98
25638;BME280;13496;51.040;13.680;2024-02-04T01:43:40;100077.09;;;17.77;54.59
25638;BME280;13496;51.040;13.680;2024-02-04T01:48:43;100079.53;;;17.78;54.87
25638;BME280;13496;51.040;13.680;2024-02-04T01:53:46;100082.50;;;17.75;55.11
25638;BME280;13496;51.040;13.680;2024-02-04T01:58:49;100100.88;;;17.75;54.98
25638;BME280;13496;51.040;13.680;2024-02-04T02:03:51;100094.78;;;17.75;55.13
25638;BME280;13496;51.040;13.680;2024-02-04T02:08:55;100085.94;;;17.76;54.60
25638;BME280;13496;51.040;13.680;2024-02-04T02:14:01;100081.53;;;17.76;54.78
25638;BME280;13496;51.040;13.680;2024-02-04T02:24:40;100050.34;;;17.73;55.10
25638;BME280;13496;51.040;13.680;2024-02-04T02:29:43;100047.06;;;17.71;54.88
25638;BME280;13496;51.040;13.680;2024-02-04T02:34:45;100051.97;;;17.74;54.78
25638;BME280;13496;51.040;13.680;2024-02-04T02:39:59;100044.28;;;17.73;54.96
25638;BME280;13496;51.040;13.680;2024-02-04T02:45:03;100061.66;;;17.74;54.81
25638;BME280;13496;51.040;13.680;2024-02-04T02:50:06;100058.38;;;17.72;54.99
25638;BME280;13496;51.040;13.680;2024-02-04T02:55:08;100049.34;;;17.74;55.09
25638;BME280;13496;51.040;13.680;2024-02-04T03:00:10;100037.03;;;17.75;55.04
25638;BME280;13496;51.040;13.680;2024-02-04T03:05:14;100043.44;;;17.72;54.73
25638;BME280;13496;51.040;13.680;2024-02-04T03:10:16;100038.38;;;17.71;54.83
25638;BME280;13496;51.040;13.680;2024-02-04T03:15:18;100050.69;;;17.70;54.55
25638;BME280;13496;51.040;13.680;2024-02-04T03:20:20;100048.06;;;17.70;53.51
25638;BME280;13496;51.040;13.680;2024-02-04T03:25:23;100043.97;;;17.67;54.54
25638;BME280;13496;51.040;13.680;2024-02-04T03:30:28;100034.94;;;17.70;54.37
25638;BME280;13496;51.040;13.680;2024-02-04T03:35:30;100043.16;;;17.67;54.01
25638;BME280;13496;51.040;13.680;2024-02-04T03:40:32;100045.78;;;17.67;54.64
25638;BME280;13496;51.040;13.680;2024-02-04T03:45:35;100051.03;;;17.67;54.63
25638;BME280;13496;51.040;13.680;2024-02-04T03:50:37;100044.78;;;17.68;54.67
25638;BME280;13496;51.040;13.680;2024-02-04T03:55:39;100053.66;;;17.67;54.38
25638;BME280;13496;51.040;13.680;2024-02-04T04:00:41;100065.44;;;17.71;54.46
25638;BME280;13496;51.040;13.680;2024-02-04T04:05:42;100066.44;;;17.70;54.36
25638;BME280;13496;51.040;13.680;2024-02-04T04:10:45;100040.19;;;17.70;54.25
25638;BME280;13496;51.040;13.680;2024-02-04T04:15:47;100025.44;;;17.69;54.50
25638;BME280;13496;51.040;13.680;2024-02-04T04:20:48;100031.66;;;17.68;54.50
25638;BME280;13496;51.040;13.680;2024-02-04T04:25:50;100030.41;;;17.64;54.41
25638;BME280;13496;51.040;13.680;2024-02-04T04:30:52;100011.88;;;17.65;54.64
25638;BME280;13496;51.040;13.680;2024-02-04T04:35:54;100014.50;;;17.65;54.21
25638;BME280;13496;51.040;13.680;2024-02-04T04:40:55;100023.53;;;17.63;54.71
25638;BME280;13496;51.040;13.680;2024-02-04T04:45:57;100024.53;;;17.62;54.47
25638;BME280;13496;51.040;13.680;2024-02-04T04:50:59;100026.16;;;17.63;54.73
25638;BME280;13496;51.040;13.680;2024-02-04T04:56:01;100024.34;;;17.63;54.33
25638;BME280;13496;51.040;13.680;2024-02-04T05:01:04;100022.88;;;17.61;54.64
25638;BME280;13496;51.040;13.680;2024-02-04T05:06:07;100017.81;;;17.59;54.45
25638;BME280;13496;51.040;13.680;2024-02-04T05:11:08;100013.38;;;17.60;54.63
25638;BME280;13496;51.040;13.680;2024-02-04T05:16:10;100008.94;;;17.60;54.35
25638;BME280;13496;51.040;13.680;2024-02-04T05:21:12;99996.81;;;17.59;54.42
25638;BME280;13496;51.040;13.680;2024-02-04T05:26:17;99987.31;;;17.58;54.67
25638;BME280;13496;51.040;13.680;2024-02-04T05:31:20;99984.69;;;17.58;54.64
25638;BME280;13496;51.040;13.680;2024-02-04T05:36:21;99988.13;;;17.59;54.18
25638;BME280;13496;51.040;13.680;2024-02-04T05:41:23;99978.78;;;17.56;54.35
25638;BME280;13496;51.040;13.680;2024-02-04T05:46:25;99963.25;;;17.55;54.70
25638;BME280;13496;51.040;13.680;2024-02-04T05:51:37;99964.06;;;17.55;54.48
25638;BME280;13496;51.040;13.680;2024-02-04T05:56:39;99958.16;;;17.53;54.66
25638;BME280;13496;51.040;13.680;2024-02-04T06:01:41;99957.19;;;17.54;54.24
25638;BME280;13496;51.040;13.680;2024-02-04T06:06:44;99963.25;;;17.55;54.39
25638;BME280;13496;51.040;13.680;2024-02-04T06:11:46;99959.16;;;17.52;54.44
25638;BME280;13496;51.040;13.680;2024-02-04T06:16:48;99970.47;;;17.53;54.50
25638;BME280;13496;51.040;13.680;2024-02-04T06:21:49;99952.09;;;17.53;54.58
25638;BME280;13496;51.040;13.680;2024-02-04T06:26:51;99954.72;;;17.53;54.23
25638;BME280;13496;51.040;13.680;2024-02-04T06:31:53;99943.41;;;17.52;54.46
25638;BME280;13496;51.040;13.680;2024-02-04T06:36:55;99909.50;;;17.51;54.51
25638;BME280;13496;51.040;13.680;2024-02-04T06:41:57;99906.69;;;17.52;54.17
25638;BME280;13496;51.040;13.680;2024-02-04T06:46:58;99908.78;;;17.57;54.20
25638;BME280;13496;51.040;13.680;2024-02-04T06:52:00;99906.50;;;17.54;54.52
25638;BME280;13496;51.040;13.680;2024-02-04T06:57:02;99929.28;;;17.53;54.64
25638;BME280;13496;51.040;13.680;2024-02-04T07:02:04;99921.63;;;17.52;54.50
25638;BME280;13496;51.040;13.680;2024-02-04T07:07:06;99916.38;;;17.52;54.35
25638;BME280;13496;51.040;13.680;2024-02-04T07:12:08;99913.94;;;17.50;54.14
25638;BME280;13496;51.040;13.680;2024-02-04T07:17:09;99909.59;;;17.57;53.96
25638;BME280;13496;51.040;13.680;2024-02-04T07:22:13;99914.38;;;17.54;54.22
25638;BME280;13496;51.040;13.680;2024-02-04T07:27:15;99909.97;;;17.54;54.08
25638;BME280;13496;51.040;13.680;2024-02-04T07:32:16;99906.34;;;17.55;54.31
25638;BME280;13496;51.040;13.680;2024-02-04T07:37:18;99904.72;;;17.54;53.00
25638;BME280;13496;51.040;13.680;2024-02-04T07:42:21;99889.78;;;17.55;53.52
25638;BME280;13496;51.040;13.680;2024-02-04T07:47:22;99882.19;;;17.60;53.71
25638;BME280;13496;51.040;13.680;2024-02-04T07:52:24;99876.13;;;17.59;53.81
25638;BME280;13496;51.040;13.680;2024-02-04T07:57:26;99891.06;;;17.59;53.14
25638;BME280;13496;51.040;13.680;2024-02-04T08:02:28;99902.81;;;17.63;53.10
25638;BME280;13496;51.040;13.680;2024-02-04T08:07:30;99879.88;;;17.65;52.72
25638;BME280;13496;51.040;13.680;2024-02-04T08:12:32;99895.88;;;17.70;53.53
25638;BME280;13496;51.040;13.680;2024-02-04T08:17:33;99893.25;;;17.70;53.28
25638;BME280;13496;51.040;13.680;2024-02-04T08:22:35;99873.72;;;17.73;53.03
25638;BME280;13496;51.040;13.680;2024-02-04T08:27:38;99874.69;;;17.72;52.63
25638;BME280;13496;51.040;13.680;2024-02-04T08:32:41;99878.31;;;17.71;52.82
25638;BME280;13496;51.040;13.680;2024-02-04T08:37:42;99880.06;;;17.78;53.14
25638;BME280;13496;51.040;13.680;2024-02-04T08:42:44;99888.94;;;17.77;51.88
25638;BME280;13496;51.040;13.680;2024-02-04T08:47:46;99881.06;;;17.77;52.47
25638;BME280;13496;51.040;13.680;2024-02-04T08:52:48;99892.19;;;17.79;52.00
25638;BME280;13496;51.040;13.680;2024-02-04T08:57:49;99892.03;;;17.81;52.47
25638;BME280;13496;51.040;13.680;2024-02-04T09:02:51;99892.66;;;17.83;51.90
25638;BME280;13496;51.040;13.680;2024-02-04T09:07:53;99904.34;;;17.80;52.26
25638;BME280;13496;51.040;13.680;2024-02-04T09:12:56;99909.00;;;17.70;52.14
25638;BME280;13496;51.040;13.680;2024-02-04T09:17:58;99923.75;;;17.71;52.25
25638;BME280;13496;51.040;13.680;2024-02-04T09:23:00;99915.50;;;17.74;51.95
25638;BME280;13496;51.040;13.680;2024-02-04T09:28:02;99917.00;;;17.77;51.68
25638;BME280;13496;51.040;13.680;2024-02-04T09:33:04;99894.34;;;17.76;51.85
25638;BME280;13496;51.040;13.680;2024-02-04T09:38:06;99894.19;;;17.77;52.32
25638;BME280;13496;51.040;13.680;2024-02-04T09:43:09;99905.97;;;17.81;52.35
25638;BME280;13496;51.040;13.680;2024-02-04T09:48:11;99905.81;;;17.75;51.60
25638;BME280;13496;51.040;13.680;2024-02-04T09:53:14;99903.97;;;17.83;51.96
25638;BME280;13496;51.040;13.680;2024-02-04T09:58:20;99888.06;;;17.85;51.80
25638;BME280;13496;51.040;13.680;2024-02-04T10:03:22;99891.47;;;17.85;52.01
25638;BME280;13496;51.040;13.680;2024-02-04T10:08:24;99891.84;;;17.82;52.14
25638;BME280;13496;51.040;13.680;2024-02-04T10:13:26;99881.53;;;17.81;52.41
25638;BME280;13496;51.040;13.680;2024-02-04T10:18:28;99861.53;;;17.80;52.61
25638;BME280;13496;51.040;13.680;2024-02-04T10:23:30;99864.97;;;17.80;52.25
25638;BME280;13496;51.040;13.680;2024-02-04T10:28:32;99850.59;;;17.76;52.27
25638;BME280;13496;51.040;13.680;2024-02-04T10:33:34;99839.34;;;17.82;52.32
25638;BME280;13496;51.040;13.680;2024-02-04T10:38:36;99834.91;;;17.83;52.17
25638;BME280;13496;51.040;13.680;2024-02-04T10:43:38;99818.72;;;17.79;52.70
25638;BME280;13496;51.040;13.680;2024-02-04T10:48:43;99821.84;;;17.75;53.01
25638;BME280;13496;51.040;13.680;2024-02-04T10:53:48;99811.56;;;17.73;53.11
25638;BME280;13496;51.040;13.680;2024-02-04T10:58:51;99799.38;;;17.80;52.61
25638;BME280;13496;51.040;13.680;2024-02-04T11:03:54;99806.22;;;17.81;52.67
25638;BME280;13496;51.040;13.680;2024-02-04T11:08:57;99785.38;;;17.95;52.34
25638;BME280;13496;51.040;13.680;2024-02-04T11:14:04;99783.06;;;18.00;52.26
25638;BME280;13496;51.040;13.680;2024-02-04T11:19:42;99783.06;;;18.00;52.06
25638;BME280;13496;51.040;13.680;2024-02-04T11:25:03;99760.78;;;17.96;52.74
25638;BME280;13496;51.040;13.680;2024-02-04T11:30:10;99742.97;;;17.91;52.11
25638;BME280;13496;51.040;13.680;2024-02-04T11:35:12;99750.53;;;18.01;52.22
25638;BME280;13496;51.040;13.680;2024-02-04T11:40:15;99750.75;;;17.99;51.96
25638;BME280;13496;51.040;13.680;2024-02-04T11:45:20;99751.09;;;17.96;51.46
25638;BME280;13496;51.040;13.680;2024-02-04T11:50:28;99754.72;;;17.95;51.55
25638;BME280;13496;51.040;13.680;2024-02-04T11:55:31;99750.66;;;17.93;52.15
25638;BME280;13496;51.040;13.680;2024-02-04T12:00:33;99738.13;;;17.95;51.91
25638;BME280;13496;51.040;13.680;2024-02-04T12:05:36;99745.41;;;17.93;52.15
25638;BME280;13496;51.040;13.680;2024-02-04T12:10:39;99722.66;;;18.00;52.15
25638;BME280;13496;51.040;13.680;2024-02-04T12:15:42;99711.53;;;17.98;52.03
25638;BME280;13496;51.040;13.680;2024-02-04T12:20:44;99705.91;;;18.01;52.31
25638;BME280;13496;51.040;13.680;2024-02-04T12:25:46;99695.03;;;18.04;52.03
25638;BME280;13496;51.040;13.680;2024-02-04T12:30:54;99696.31;;;18.08;52.04
25638;BME280;13496;51.040;13.680;2024-02-04T12:35:56;99689.69;;;18.12;51.57
25638;BME280;13496;51.040;13.680;2024-02-04T12:41:03;99677.72;;;18.09;51.50
25638;BME280;13496;51.040;13.680;2024-02-04T12:46:06;99672.91;;;18.13;51.94
25638;BME280;13496;51.040;13.680;2024-02-04T12:51:09;99681.44;;;18.15;51.43
25638;BME280;13496;51.040;13.680;2024-02-04T12:56:12;99682.16;;;18.09;50.87
25638;BME280;13496;51.040;13.680;2024-02-04T13:01:14;99665.44;;;18.10;50.81
25638;BME280;13496;51.040;13.680;2024-02-04T13:06:16;99651.88;;;18.06;51.07
25638;BME280;13496;51.040;13.680;2024-02-04T13:11:21;99650.22;;;18.05;51.02
25638;BME280;13496;51.040;13.680;2024-02-04T13:16:23;99664.59;;;18.09;51.37
25638;BME280;13496;51.040;13.680;2024-02-04T13:21:27;99673.69;;;18.07;50.79
25638;BME280;13496;51.040;13.680;2024-02-04T13:26:29;99672.31;;;18.11;51.47
25638;BME280;13496;51.040;13.680;2024-02-04T13:31:31;99669.59;;;18.04;50.15
25638;BME280;13496;51.040;13.680;2024-02-04T13:36:33;99698.41;;;17.98;50.56
25638;BME280;13496;51.040;13.680;2024-02-04T13:41:35;99694.16;;;17.97;50.60
25638;BME280;13496;51.040;13.680;2024-02-04T13:46:37;99708.53;;;18.01;50.63
25638;BME280;13496;51.040;13.680;2024-02-04T13:51:43;99697.22;;;18.00;51.09
25638;BME280;13496;51.040;13.680;2024-02-04T13:56:45;99709.91;;;17.97;50.73
25638;BME280;13496;51.040;13.680;2024-02-04T14:01:47;99713.91;;;17.93;51.03
25638;BME280;13496;51.040;13.680;2024-02-04T14:06:49;99735.63;;;17.86;50.74
25638;BME280;13496;51.040;13.680;2024-02-04T14:11:51;99741.16;;;17.92;51.05
25638;BME280;13496;51.040;13.680;2024-02-04T14:16:53;99752.03;;;17.88;50.95
25638;BME280;13496;51.040;13.680;2024-02-04T14:21:55;99748.75;;;17.86;50.74
25638;BME280;13496;51.040;13.680;2024-02-04T14:26:58;99735.94;;;17.77;49.87
25638;BME280;13496;51.040;13.680;2024-02-04T14:32:00;99737.19;;;17.81;50.31
25638;BME280;13496;51.040;13.680;2024-02-04T14:37:02;99735.56;;;17.80;50.47
25638;BME280;13496;51.040;13.680;2024-02-04T14:42:03;99724.06;;;17.81;50.69
25638;BME280;13496;51.040;13.680;2024-02-04T14:47:05;99727.50;;;17.81;51.08
25638;BME280;13496;51.040;13.680;2024-02-04T14:52:07;99730.13;;;17.81;51.34
25638;BME280;13496;51.040;13.680;2024-02-04T14:57:09;99721.59;;;17.79;50.97
25638;BME280;13496;51.040;13.680;2024-02-04T15:02:11;99738.00;;;17.81;50.05
25638;BME280;13496;51.040;13.680;2024-02-04T15:07:12;99738.72;;;17.75;50.74
25638;BME280;13496;51.040;13.680;2024-02-04T15:12:14;99743.44;;;17.80;50.82
25638;BME280;13496;51.040;13.680;2024-02-04T15:17:17;99757.72;;;17.77;49.79
25638;BME280;13496;51.040;13.680;2024-02-04T15:22:19;99755.72;;;17.79;50.10
25638;BME280;13496;51.040;13.680;2024-02-04T15:27:21;99754.09;;;17.78;50.73
25638;BME280;13496;51.040;13.680;2024-02-04T15:32:23;99760.97;;;17.79;50.58
25638;BME280;13496;51.040;13.680;2024-02-04T15:37:25;99750.88;;;17.76;50.63
25638;BME280;13496;51.040;13.680;2024-02-04T15:42:26;99755.72;;;17.79;50.81
25638;BME280;13496;51.040;13.680;2024-02-04T15:47:30;99740.19;;;17.78;52.18
25638;BME280;13496;51.040;13.680;2024-02-04T15:52:33;99743.25;;;17.81;52.27
25638;BME280;13496;51.040;13.680;2024-02-04T15:57:36;99746.88;;;17.80;52.28
25638;BME280;13496;51.040;13.680;2024-02-04T16:02:40;99746.88;;;17.80;52.34
25638;BME280;13496;51.040;13.680;2024-02-04T16:07:45;99741.88;;;17.85;53.05
25638;BME280;13496;51.040;13.680;2024-02-04T16:12:52;99749.94;;;17.84;53.80
25638;BME280;13496;51.040;13.680;2024-02-04T16:17:55;99740.06;;;17.86;53.74
25638;BME280;13496;51.040;13.680;2024-02-04T16:22:57;99743.69;;;17.85;53.38
25638;BME280;13496;51.040;13.680;2024-02-04T16:27:59;99744.50;;;17.85;54.16
25638;BME280;13496;51.040;13.680;2024-02-04T16:33:01;99730.81;;;17.90;53.86
25638;BME280;13496;51.040;13.680;2024-02-04T16:38:03;99733.28;;;17.92;54.17
25638;BME280;13496;51.040;13.680;2024-02-04T16:43:05;99740.88;;;17.86;54.53
25638;BME280;13496;51.040;13.680;2024-02-04T16:48:07;99734.81;;;17.86;53.92
25638;BME280;13496;51.040;13.680;2024-02-04T16:53:09;99737.09;;;17.89;54.19
25638;BME280;13496;51.040;13.680;2024-02-04T16:58:12;99753.03;;;17.87;54.36
25638;BME280;13496;51.040;13.680;2024-02-04T17:03:14;99747.94;;;17.86;54.34
25638;BME280;13496;51.040;13.680;2024-02-04T17:08:16;99752.56;;;17.84;54.29
25638;BME280;13496;51.040;13.680;2024-02-04T17:13:19;99750.75;;;17.84;54.95
25638;BME280;13496;51.040;13.680;2024-02-04T17:18:44;99736.84;;;17.84;54.62
25638;BME280;13496;51.040;13.680;2024-02-04T17:23:50;99727.13;;;17.84;54.87
25638;BME280;13496;51.040;13.680;2024-02-04T17:28:55;99722.50;;;17.86;55.07
25638;BME280;13496;51.040;13.680;2024-02-04T17:33:59;99725.50;;;17.83;55.09
25638;BME280;13496;51.040;13.680;2024-02-04T17:39:01;99728.31;;;17.82;55.03
25638;BME280;13496;51.040;13.680;2024-02-04T17:44:06;99721.09;;;17.84;55.19
25638;BME280;13496;51.040;13.680;2024-02-04T17:49:08;99703.69;;;17.83;55.04
25638;BME280;13496;51.040;13.680;2024-02-04T17:54:11;99704.50;;;17.83;55.04
25638;BME280;13496;51.040;13.680;2024-02-04T17:59:13;99690.41;;;17.84;55.17
25638;BME280;13496;51.040;13.680;2024-02-04T18:04:15;99693.03;;;17.84;55.31
25638;BME280;13496;51.040;13.680;2024-02-04T18:09:17;99692.00;;;17.85;54.94
25638;BME280;13496;51.040;13.680;2024-02-04T18:14:20;99688.75;;;17.83;55.45
25638;BME280;13496;51.040;13.680;2024-02-04T18:19:22;99685.16;;;17.84;55.07
25638;BME280;13496;51.040;13.680;2024-02-04T18:24:24;99680.88;;;17.83;54.69
25638;BME280;13496;51.040;13.680;2024-02-04T18:29:26;99704.69;;;17.82;55.18
25638;BME280;13496;51.040;13.680;2024-02-04T18:34:28;99700.91;;;17.84;55.05
25638;BME280;13496;51.040;13.680;2024-02-04T18:39:29;99696.81;;;17.82;54.93
25638;BME280;13496;51.040;13.680;2024-02-04T18:44:32;99695.66;;;17.84;55.07
25638;BME280;13496;51.040;13.680;2024-02-04T18:49:36;99693.19;;;17.83;55.26
25638;BME280;13496;51.040;13.680;2024-02-04T18:54:38;99690.41;;;17.84;55.43
25638;BME280;13496;51.040;13.680;2024-02-04T18:59:40;99672.03;;;17.84;55.36
25638;BME280;13496;51.040;13.680;2024-02-04T19:04:42;99667.75;;;17.83;55.14
25638;BME280;13496;51.040;13.680;2024-02-04T19:09:44;99679.91;;;17.84;55.37
25638;BME280;13496;51.040;13.680;2024-02-04T19:14:45;99686.13;;;17.83;55.47
25638;BME280;13496;51.040;13.680;2024-02-04T19:19:47;99662.94;;;17.87;55.69
25638;BME280;13496;51.040;13.680;2024-02-04T19:24:49;99665.56;;;17.87;55.61
25638;BME280;13496;51.040;13.680;2024-02-04T19:29:51;99660.16;;;17.88;55.23
25638;BME280;13496;51.040;13.680;2024-02-04T19:34:53;99662.13;;;17.86;55.23
25638;BME280;13496;51.040;13.680;2024-02-04T19:39:55;99668.41;;;17.85;55.53
25638;BME280;13496;51.040;13.680;2024-02-04T19:44:56;99650.84;;;17.86;55.47
25638;BME280;13496;51.040;13.680;2024-02-04T19:49:58;99634.91;;;17.87;55.07
25638;BME280;13496;51.040;13.680;2024-02-04T19:55:00;99638.72;;;17.85;55.71
25638;BME280;13496;51.040;13.680;2024-02-04T20:00:02;99631.66;;;17.85;55.56
25638;BME280;13496;51.040;13.680;2024-02-04T20:05:12;99616.34;;;17.89;55.64
25638;BME280;13496;51.040;13.680;2024-02-04T20:10:14;99621.97;;;17.86;55.96
25638;BME280;13496;51.040;13.680;2024-02-04T20:15:16;99645.03;;;17.90;55.58
25638;BME280;13496;51.040;13.680;2024-02-04T20:20:25;99622.22;;;17.91;55.77
25638;BME280;13496;51.040;13.680;2024-02-04T20:25:27;99628.47;;;17.90;55.51
25638;BME280;13496;51.040;13.680;2024-02-04T20:30:29;99627.09;;;17.94;55.77
25638;BME280;13496;51.040;13.680;2024-02-04T20:35:32;99631.28;;;17.88;55.77
25638;BME280;13496;51.040;13.680;2024-02-04T20:40:33;99624.22;;;17.89;56.05
25638;BME280;13496;51.040;13.680;2024-02-04T20:45:39;99615.34;;;17.90;55.97
25638;BME280;13496;51.040;13.680;2024-02-04T20:50:41;99613.72;;;17.89;56.00
25638;BME280;13496;51.040;13.680;2024-02-04T20:55:43;99583.22;;;17.88;55.75
25638;BME280;13496;51.040;13.680;2024-02-04T21:00:44;99587.47;;;17.89;55.82
25638;BME280;13496;51.040;13.680;2024-02-04T21:05:46;99584.03;;;17.88;55.77
25638;BME280;13496;51.040;13.680;2024-02-04T21:10:48;99582.22;;;17.89;55.79
25638;BME280;13496;51.040;13.680;2024-02-04T21:22:26;99560.06;;;17.92;56.14
25638;BME280;13496;51.040;13.680;2024-02-04T21:27:28;99545.72;;;17.94;55.91
25638;BME280;13496;51.040;13.680;2024-02-04T21:32:30;99536.22;;;17.93;56.14
25638;BME280;13496;51.040;13.680;2024-02-04T21:37:32;99510.78;;;17.94;56.05
25638;BME280;13496;51.040;13.680;2024-02-04T21:42:36;99499.28;;;17.95;56.20
25638;BME280;13496;51.040;13.680;2024-02-04T21:47:38;99485.78;;;17.98;55.85
25638;BME280;13496;51.040;13.680;2024-02-04T21:52:40;99477.91;;;17.98;55.87
25638;BME280;13496;51.040;13.680;2024-02-04T21:57:41;99473.03;;;17.95;56.06
25638;BME280;13496;51.040;13.680;2024-02-04T22:02:44;99467.97;;;17.93;55.93
25638;BME280;13496;51.040;13.680;2024-02-04T22:07:46;99465.78;;;17.97;55.86
25638;BME280;13496;51.040;13.680;2024-02-04T22:12:48;99449.84;;;17.98;55.94
25638;BME280;13496;51.040;13.680;2024-02-04T22:17:50;99453.03;;;17.94;56.21
25638;BME280;13496;51.040;13.680;2024-02-04T22:22:52;99433.66;;;17.95;55.95
25638;BME280;13496;51.040;13.680;2024-02-04T22:27:54;99440.56;;;17.96;56.07
25638;BME280;13496;51.040;13.680;2024-02-04T22:32:56;99425.78;;;17.95;56.02
25638;BME280;13496;51.040;13.680;2024-02-04T22:37:58;99416.28;;;17.94;56.03
25638;BME280;13496;51.040;13.680;2024-02-04T22:43:00;99407.41;;;17.95;55.75
25638;BME280;13496;51.040;13.680;2024-02-04T22:48:02;99402.16;;;17.95;55.98
25638;BME280;13496;51.040;13.680;2024-02-04T22:53:03;99400.97;;;17.97;55.51
25638;BME280;13496;51.040;13.680;2024-02-04T22:58:06;99403.81;;;17.96;55.98
25638;BME280;13496;51.040;13.680;2024-02-04T23:03:09;99402.78;;;17.97;55.85
25638;BME280;13496;51.040;13.680;2024-02-04T23:08:11;99413.66;;;17.94;55.63
25638;BME280;13496;51.040;13.680;2024-02-04T23:13:13;99409.63;;;17.91;55.71
25638;BME280;13496;51.040;13.680;2024-02-04T23:18:15;99397.91;;;17.94;55.46
25638;BME280;13496;51.040;13.680;2024-02-04T23:23:17;99393.88;;;17.91;55.60
25638;BME280;13496;51.040;13.680;2024-02-04T23:28:23;99404.19;;;17.93;55.36
25638;BME280;13496;51.040;13.680;2024-02-04T23:33:25;99392.06;;;17.92;54.95
25638;BME280;13496;51.040;13.680;2024-02-04T23:38:27;99402.56;;;17.92;55.32
25638;BME280;13496;51.040;13.680;2024-02-04T23:43:29;99401.34;;;17.87;54.84
25638;BME280;13496;51.040;13.680;2024-02-04T23:48:32;99401.13;;;17.89;55.37
25638;BME280;13496;51.040;13.680;2024-02-04T23:53:33;99393.25;;;17.89;55.02
25638;BME280;13496;51.040;13.680;2024-02-04T23:58:35;99392.25;;;17.90;55.08
